createdAt,value
2022-12-01T00:00:22.518Z,1013.07
2022-12-01T00:01:22.504Z,1013.19
2022-12-01T00:02:22.586Z,1013.12
2022-12-01T00:03:22.609Z,1013.10
2022-12-01T00:04:22.532Z,1013.12
2022-12-01T00:05:22.465Z,1013.07
2022-12-01T00:06:22.453Z,1013.10
2022-12-01T00:07:22.528Z,1013.05
2022-12-01T00:08:22.430Z,1013.09
2022-12-01T00:09:22.441Z,1013.17
2022-12-01T00:10:22.407Z,1013.12
2022-12-01T00:11:22.421Z,1013.15
2022-12-01T00:12:22.396Z,1013.06
2022-12-01T00:13:22.372Z,1013.01
2022-12-01T00:14:22.367Z,1013.04
2022-12-01T00:15:22.416Z,1013.04
2022-12-01T00:16:22.459Z,1013.10
2022-12-01T00:17:22.333Z,1013.09
2022-12-01T00:18:22.329Z,1013.01
2022-12-01T00:19:22.341Z,1012.99
2022-12-01T00:20:22.328Z,1012.95
2022-12-01T00:21:22.322Z,1012.97
2022-12-01T00:22:22.279Z,1012.94
2022-12-01T00:23:22.273Z,1012.94
2022-12-01T00:24:22.281Z,1012.95
2022-12-01T00:25:22.278Z,1012.91
2022-12-01T00:26:22.242Z,1012.98
2022-12-01T00:27:22.261Z,1012.96
2022-12-01T00:28:22.212Z,1013.00
2022-12-01T00:29:22.350Z,1013.01
2022-12-01T00:30:22.202Z,1012.91
2022-12-01T00:31:22.236Z,1012.92
2022-12-01T00:32:22.183Z,1012.94
2022-12-01T00:33:22.188Z,1012.96
2022-12-01T00:34:22.153Z,1012.94
2022-12-01T00:35:22.167Z,1012.92
2022-12-01T00:36:22.148Z,1012.96
2022-12-01T00:37:22.130Z,1013.00
2022-12-01T00:38:22.108Z,1012.97
2022-12-01T00:39:22.141Z,1012.96
2022-12-01T00:40:22.130Z,1012.99
2022-12-01T00:41:22.078Z,1012.93
2022-12-01T00:42:22.060Z,1012.98
2022-12-01T00:43:22.655Z,1012.95
2022-12-01T00:44:22.061Z,1013.02
2022-12-01T00:45:22.052Z,1012.96
2022-12-01T00:46:22.066Z,1012.97
2022-12-01T00:47:22.013Z,1012.95
2022-12-01T00:48:22.009Z,1012.91
2022-12-01T00:49:22.015Z,1012.86
2022-12-01T00:50:22.000Z,1012.94
2022-12-01T00:51:22.017Z,1013.00
2022-12-01T00:52:21.971Z,1013.00
2022-12-01T00:53:21.957Z,1012.93
2022-12-01T00:54:21.931Z,1012.99
2022-12-01T00:55:21.933Z,1012.93
2022-12-01T00:56:21.910Z,1012.96
2022-12-01T00:57:21.937Z,1012.99
2022-12-01T00:58:21.888Z,1013.00
2022-12-01T00:59:21.891Z,1012.91
2022-12-01T01:00:21.867Z,1013.03
2022-12-01T01:01:21.941Z,1012.96
2022-12-01T01:02:21.924Z,1013.02
2022-12-01T01:03:21.848Z,1013.01
2022-12-01T01:04:21.826Z,1012.97
2022-12-01T01:05:21.811Z,1013.03
2022-12-01T01:06:21.801Z,1013.06
2022-12-01T01:07:21.909Z,1013.04
2022-12-01T01:08:21.828Z,1013.07
2022-12-01T01:09:21.789Z,1013.09
2022-12-01T01:10:21.759Z,1013.10
2022-12-01T01:11:21.748Z,1013.14
2022-12-01T01:12:21.736Z,1013.09
2022-12-01T01:13:21.732Z,1013.09
2022-12-01T01:14:21.742Z,1013.14
2022-12-01T01:15:21.754Z,1013.11
2022-12-01T01:16:21.767Z,1013.12
2022-12-01T01:17:21.685Z,1013.21
2022-12-01T01:18:21.674Z,1013.14
2022-12-01T01:19:21.687Z,1013.17
2022-12-01T01:20:21.653Z,1013.16
2022-12-01T01:21:21.664Z,1013.11
2022-12-01T01:22:21.631Z,1013.12
2022-12-01T01:23:21.646Z,1013.10
2022-12-01T01:24:21.640Z,1013.15
2022-12-01T01:25:21.626Z,1013.15
2022-12-01T01:26:21.641Z,1013.16
2022-12-01T01:27:21.597Z,1013.17
2022-12-01T01:28:21.568Z,1013.21
2022-12-01T01:29:21.553Z,1013.11
2022-12-01T01:30:21.683Z,1013.15
2022-12-01T01:31:21.653Z,1013.16
2022-12-01T01:32:21.522Z,1013.18
2022-12-01T01:33:21.567Z,1013.12
2022-12-01T01:34:21.506Z,1013.16
2022-12-01T01:35:21.494Z,1013.16
2022-12-01T01:36:21.510Z,1013.08
2022-12-01T01:37:21.489Z,1013.21
2022-12-01T01:38:21.486Z,1013.11
2022-12-01T01:39:21.457Z,1013.10
2022-12-01T01:40:21.472Z,1013.10
2022-12-01T01:41:21.426Z,1013.10
2022-12-01T01:42:21.443Z,1013.11
2022-12-01T01:43:21.403Z,1013.13
2022-12-01T01:44:21.392Z,1013.07
2022-12-01T01:45:21.394Z,1013.16
2022-12-01T01:46:21.443Z,1013.06
2022-12-01T01:47:21.395Z,1013.06
2022-12-01T01:48:21.349Z,1013.10
2022-12-01T01:49:21.372Z,1013.13
2022-12-01T01:50:21.327Z,1013.10
2022-12-01T01:51:21.326Z,1013.17
2022-12-01T01:52:21.306Z,1013.12
2022-12-01T01:53:21.294Z,1013.11
2022-12-01T01:54:21.310Z,1013.08
2022-12-01T01:55:21.281Z,1013.10
2022-12-01T01:56:21.280Z,1013.11
2022-12-01T01:57:21.316Z,1013.16
2022-12-01T01:58:21.240Z,1013.18
2022-12-01T01:59:21.232Z,1013.17
2022-12-01T02:00:21.237Z,1013.13
2022-12-01T02:01:21.269Z,1013.17
2022-12-01T02:02:21.217Z,1013.13
2022-12-01T02:03:21.225Z,1013.17
2022-12-01T02:04:21.176Z,1013.17
2022-12-01T02:05:21.169Z,1013.15
2022-12-01T02:06:21.184Z,1013.20
2022-12-01T02:07:21.153Z,1013.22
2022-12-01T02:08:21.132Z,1013.18
2022-12-01T02:09:21.198Z,1013.22
2022-12-01T02:10:21.110Z,1013.20
2022-12-01T02:11:21.108Z,1013.16
2022-12-01T02:12:21.105Z,1013.11
2022-12-01T02:13:21.125Z,1013.09
2022-12-01T02:14:21.104Z,1013.13
2022-12-01T02:15:21.084Z,1013.12
2022-12-01T02:16:21.077Z,1013.18
2022-12-01T02:17:21.037Z,1013.19
2022-12-01T02:18:21.042Z,1013.11
2022-12-01T02:19:21.053Z,1013.15
2022-12-01T02:20:21.037Z,1013.07
2022-12-01T02:21:21.008Z,1013.06
2022-12-01T02:22:20.980Z,1013.08
2022-12-01T02:23:20.996Z,1013.03
2022-12-01T02:24:20.960Z,1013.05
2022-12-01T02:25:20.947Z,1013.02
2022-12-01T02:26:20.937Z,1013.05
2022-12-01T02:27:20.943Z,1012.96
2022-12-01T02:28:20.956Z,1012.99
2022-12-01T02:29:20.926Z,1013.03
2022-12-01T02:30:20.935Z,1013.05
2022-12-01T02:31:20.930Z,1013.06
2022-12-01T02:32:20.875Z,1013.09
2022-12-01T02:33:20.914Z,1013.05
2022-12-01T02:34:20.853Z,1013.04
2022-12-01T02:35:20.878Z,1013.10
2022-12-01T02:36:20.867Z,1013.13
2022-12-01T02:37:20.819Z,1013.13
2022-12-01T02:38:20.837Z,1013.08
2022-12-01T02:39:20.812Z,1013.11
2022-12-01T02:40:20.790Z,1013.06
2022-12-01T02:41:20.792Z,1013.03
2022-12-01T02:42:20.769Z,1013.11
2022-12-01T02:43:20.753Z,1013.11
2022-12-01T02:44:20.783Z,1013.08
2022-12-01T02:45:20.747Z,1013.09
2022-12-01T02:46:20.905Z,1013.11
2022-12-01T02:47:20.710Z,1013.12
2022-12-01T02:48:20.715Z,1013.11
2022-12-01T02:49:20.717Z,1013.16
2022-12-01T02:50:20.680Z,1013.07
2022-12-01T02:51:20.765Z,1013.07
2022-12-01T02:52:20.667Z,1013.10
2022-12-01T02:53:20.646Z,1013.05
2022-12-01T02:54:20.635Z,1013.13
2022-12-01T02:55:20.623Z,1013.10
2022-12-01T02:56:20.665Z,1013.08
2022-12-01T02:57:20.622Z,1013.08
2022-12-01T02:58:20.592Z,1013.12
2022-12-01T02:59:20.580Z,1013.12
2022-12-01T03:00:20.599Z,1013.14
2022-12-01T03:01:20.592Z,1013.09
2022-12-01T03:02:20.655Z,1013.08
2022-12-01T03:03:20.552Z,1013.12
2022-12-01T03:04:20.533Z,1013.10
2022-12-01T03:05:20.526Z,1013.04
2022-12-01T03:06:20.524Z,1013.07
2022-12-01T03:07:20.533Z,1013.08
2022-12-01T03:08:20.512Z,1013.06
2022-12-01T03:09:20.512Z,1013.11
2022-12-01T03:10:20.479Z,1013.10
2022-12-01T03:11:20.453Z,1013.14
2022-12-01T03:12:20.492Z,1013.14
2022-12-01T03:13:20.458Z,1013.18
2022-12-01T03:14:20.416Z,1013.12
2022-12-01T03:15:20.478Z,1013.15
2022-12-01T03:16:20.466Z,1013.05
2022-12-01T03:17:20.389Z,1013.11
2022-12-01T03:18:20.378Z,1013.08
2022-12-01T03:19:20.372Z,1013.16
2022-12-01T03:20:20.355Z,1013.12
2022-12-01T03:21:20.379Z,1013.13
2022-12-01T03:22:20.349Z,1013.09
2022-12-01T03:23:20.329Z,1013.20
2022-12-01T03:24:20.339Z,1013.19
2022-12-01T03:25:20.310Z,1013.15
2022-12-01T03:26:20.286Z,1013.14
2022-12-01T03:27:20.285Z,1013.23
2022-12-01T03:28:21.966Z,1013.18
2022-12-01T03:29:20.285Z,1013.17
2022-12-01T03:30:20.246Z,1013.19
2022-12-01T03:31:20.328Z,1013.23
2022-12-01T03:32:20.253Z,1013.23
2022-12-01T03:33:20.225Z,1013.22
2022-12-01T03:34:20.229Z,1013.16
2022-12-01T03:35:20.201Z,1013.15
2022-12-01T03:36:20.212Z,1013.23
2022-12-01T03:37:20.170Z,1013.20
2022-12-01T03:38:20.161Z,1013.19
2022-12-01T03:39:20.179Z,1013.26
2022-12-01T03:40:20.167Z,1013.25
2022-12-01T03:41:20.139Z,1013.30
2022-12-01T03:42:20.116Z,1013.29
2022-12-01T03:43:20.104Z,1013.30
2022-12-01T03:44:20.094Z,1013.26
2022-12-01T03:45:20.096Z,1013.23
2022-12-01T03:46:20.132Z,1013.22
2022-12-01T03:47:20.081Z,1013.17
2022-12-01T03:48:20.072Z,1013.21
2022-12-01T03:49:20.065Z,1013.21
2022-12-01T03:50:20.060Z,1013.19
2022-12-01T03:51:20.028Z,1013.19
2022-12-01T03:52:20.046Z,1013.24
2022-12-01T03:53:20.042Z,1013.24
2022-12-01T03:54:19.988Z,1013.27
2022-12-01T03:55:19.972Z,1013.18
2022-12-01T03:56:20.003Z,1013.27
2022-12-01T03:57:19.957Z,1013.24
2022-12-01T03:58:19.978Z,1013.28
2022-12-01T03:59:19.945Z,1013.22
2022-12-01T04:00:19.924Z,1013.27
2022-12-01T04:01:19.946Z,1013.23
2022-12-01T04:02:19.904Z,1013.27
2022-12-01T04:03:19.979Z,1013.24
2022-12-01T04:04:19.891Z,1013.30
2022-12-01T04:05:25.052Z,1013.27
2022-12-01T04:06:19.868Z,1013.34
2022-12-01T04:07:19.949Z,1013.33
2022-12-01T04:08:19.863Z,1013.37
2022-12-01T04:09:19.848Z,1013.34
2022-12-01T04:10:19.811Z,1013.32
2022-12-01T04:11:19.816Z,1013.37
2022-12-01T04:12:19.799Z,1013.33
2022-12-01T04:13:19.777Z,1013.35
2022-12-01T04:14:19.793Z,1013.34
2022-12-01T04:15:19.786Z,1013.39
2022-12-01T04:16:19.818Z,1013.35
2022-12-01T04:17:19.743Z,1013.34
2022-12-01T04:18:19.726Z,1013.37
2022-12-01T04:19:19.744Z,1013.38
2022-12-01T04:20:19.734Z,1013.39
2022-12-01T04:21:19.693Z,1013.40
2022-12-01T04:22:19.716Z,1013.39
2022-12-01T04:23:19.686Z,1013.40
2022-12-01T04:24:19.659Z,1013.43
2022-12-01T04:25:19.692Z,1013.37
2022-12-01T04:26:19.641Z,1013.38
2022-12-01T04:27:19.658Z,1013.38
2022-12-01T04:28:19.613Z,1013.40
2022-12-01T04:29:19.605Z,1013.37
2022-12-01T04:30:19.605Z,1013.42
2022-12-01T04:31:19.679Z,1013.53
2022-12-01T04:32:19.702Z,1013.40
2022-12-01T04:33:19.561Z,1013.47
2022-12-01T04:34:19.550Z,1013.38
2022-12-01T04:35:19.561Z,1013.49
2022-12-01T04:36:19.607Z,1013.49
2022-12-01T04:37:19.523Z,1013.49
2022-12-01T04:38:19.528Z,1013.43
2022-12-01T04:39:19.494Z,1013.52
2022-12-01T04:40:19.511Z,1013.55
2022-12-01T04:41:19.483Z,1013.53
2022-12-01T04:42:19.469Z,1013.51
2022-12-01T04:43:19.459Z,1013.50
2022-12-01T04:44:19.440Z,1013.48
2022-12-01T04:45:19.429Z,1013.51
2022-12-01T04:46:19.484Z,1013.51
2022-12-01T04:47:19.422Z,1013.50
2022-12-01T04:48:19.406Z,1013.53
2022-12-01T04:49:19.404Z,1013.53
2022-12-01T04:50:19.375Z,1013.53
2022-12-01T04:51:19.398Z,1013.58
2022-12-01T04:52:19.413Z,1013.59
2022-12-01T04:53:19.343Z,1013.57
2022-12-01T04:54:19.377Z,1013.62
2022-12-01T04:55:19.336Z,1013.63
2022-12-01T04:56:19.311Z,1013.68
2022-12-01T04:57:19.301Z,1013.64
2022-12-01T04:58:19.288Z,1013.68
2022-12-01T04:59:19.307Z,1013.69
2022-12-01T05:00:19.286Z,1013.67
2022-12-01T05:01:19.355Z,1013.62
2022-12-01T05:02:19.322Z,1013.68
2022-12-01T05:03:19.272Z,1013.68
2022-12-01T05:04:19.247Z,1013.75
2022-12-01T05:05:19.207Z,1013.71
2022-12-01T05:06:19.262Z,1013.69
2022-12-01T05:07:19.310Z,1013.64
2022-12-01T05:08:19.196Z,1013.71
2022-12-01T05:09:19.168Z,1013.68
2022-12-01T05:10:19.170Z,1013.67
2022-12-01T05:11:19.145Z,1013.65
2022-12-01T05:12:19.160Z,1013.65
2022-12-01T05:13:19.120Z,1013.73
2022-12-01T05:14:19.111Z,1013.70
2022-12-01T05:15:19.103Z,1013.72
2022-12-01T05:16:19.196Z,1013.65
2022-12-01T05:17:19.077Z,1013.70
2022-12-01T05:18:19.130Z,1013.73
2022-12-01T05:19:19.085Z,1013.72
2022-12-01T05:20:19.044Z,1013.67
2022-12-01T05:21:19.032Z,1013.65
2022-12-01T05:22:36.470Z,1013.70
2022-12-01T05:23:19.013Z,1013.70
2022-12-01T05:24:19.033Z,1013.74
2022-12-01T05:25:18.994Z,1013.69
2022-12-01T05:26:18.982Z,1013.66
2022-12-01T05:27:19.024Z,1013.68
2022-12-01T05:28:18.960Z,1013.71
2022-12-01T05:29:18.945Z,1013.68
2022-12-01T05:30:18.983Z,1013.68
2022-12-01T05:31:19.052Z,1013.68
2022-12-01T05:32:18.912Z,1013.73
2022-12-01T05:33:18.907Z,1013.66
2022-12-01T05:34:18.893Z,1013.67
2022-12-01T05:35:18.881Z,1013.78
2022-12-01T05:36:18.912Z,1013.74
2022-12-01T05:37:18.885Z,1013.76
2022-12-01T05:38:18.851Z,1013.80
2022-12-01T05:39:18.840Z,1013.77
2022-12-01T05:40:18.850Z,1013.77
2022-12-01T05:41:18.855Z,1013.69
2022-12-01T05:42:18.837Z,1013.75
2022-12-01T05:43:21.666Z,1013.85
2022-12-01T05:44:18.785Z,1013.76
2022-12-01T05:45:18.781Z,1013.78
2022-12-01T05:46:18.805Z,1013.84
2022-12-01T05:47:18.776Z,1013.87
2022-12-01T05:48:18.777Z,1013.85
2022-12-01T05:49:18.732Z,1013.81
2022-12-01T05:50:18.774Z,1013.85
2022-12-01T05:51:18.721Z,1013.80
2022-12-01T05:52:18.695Z,1013.87
2022-12-01T05:53:18.704Z,1013.86
2022-12-01T05:54:18.697Z,1013.89
2022-12-01T05:55:18.659Z,1013.88
2022-12-01T05:56:18.783Z,1013.96
2022-12-01T05:57:18.657Z,1013.93
2022-12-01T05:58:18.628Z,1013.94
2022-12-01T05:59:18.633Z,1013.87
2022-12-01T06:00:18.643Z,1013.90
2022-12-01T06:01:18.594Z,1013.89
2022-12-01T06:02:18.639Z,1013.87
2022-12-01T06:03:18.571Z,1013.87
2022-12-01T06:04:18.588Z,1013.90
2022-12-01T06:05:18.561Z,1013.90
2022-12-01T06:06:18.585Z,1013.85
2022-12-01T06:07:18.532Z,1013.91
2022-12-01T06:08:18.523Z,1013.88
2022-12-01T06:09:18.510Z,1013.94
2022-12-01T06:10:18.500Z,1013.86
2022-12-01T06:11:18.513Z,1013.92
2022-12-01T06:12:18.512Z,1013.95
2022-12-01T06:13:18.467Z,1013.92
2022-12-01T06:14:18.490Z,1013.92
2022-12-01T06:15:18.447Z,1013.88
2022-12-01T06:16:18.468Z,1013.89
2022-12-01T06:17:18.459Z,1013.88
2022-12-01T06:18:18.465Z,1013.89
2022-12-01T06:19:18.446Z,1013.85
2022-12-01T06:20:18.409Z,1013.86
2022-12-01T06:21:18.427Z,1013.87
2022-12-01T06:22:18.374Z,1013.91
2022-12-01T06:23:18.391Z,1013.96
2022-12-01T06:24:18.387Z,1013.89
2022-12-01T06:25:18.332Z,1013.89
2022-12-01T06:26:18.365Z,1013.96
2022-12-01T06:27:18.309Z,1013.90
2022-12-01T06:28:18.330Z,1013.91
2022-12-01T06:29:18.289Z,1013.95
2022-12-01T06:30:18.294Z,1014.02
2022-12-01T06:31:18.371Z,1013.98
2022-12-01T06:32:18.255Z,1014.03
2022-12-01T06:33:18.244Z,1013.99
2022-12-01T06:34:18.239Z,1014.01
2022-12-01T06:35:18.220Z,1014.01
2022-12-01T06:36:18.253Z,1014.03
2022-12-01T06:37:18.237Z,1014.05
2022-12-01T06:38:18.190Z,1014.06
2022-12-01T06:39:18.203Z,1014.07
2022-12-01T06:40:18.201Z,1014.02
2022-12-01T06:41:18.189Z,1014.04
2022-12-01T06:42:18.182Z,1014.02
2022-12-01T06:43:18.140Z,1014.01
2022-12-01T06:44:18.156Z,1014.00
2022-12-01T06:45:18.120Z,1014.02
2022-12-01T06:46:18.231Z,1014.01
2022-12-01T06:47:18.092Z,1014.09
2022-12-01T06:48:18.109Z,1014.04
2022-12-01T06:49:18.073Z,1014.02
2022-12-01T06:50:18.074Z,1014.02
2022-12-01T06:51:18.054Z,1014.06
2022-12-01T06:52:18.061Z,1014.11
2022-12-01T06:53:18.025Z,1014.02
2022-12-01T06:54:18.016Z,1014.06
2022-12-01T06:55:18.043Z,1014.01
2022-12-01T06:56:17.991Z,1014.03
2022-12-01T06:57:17.997Z,1014.05
2022-12-01T06:58:17.984Z,1013.98
2022-12-01T06:59:17.997Z,1014.11
2022-12-01T07:00:17.967Z,1014.03
2022-12-01T07:01:18.008Z,1014.02
2022-12-01T07:02:17.952Z,1014.04
2022-12-01T07:03:17.971Z,1014.10
2022-12-01T07:04:17.915Z,1014.01
2022-12-01T07:05:17.898Z,1014.04
2022-12-01T07:06:17.880Z,1014.05
2022-12-01T07:07:17.871Z,1014.16
2022-12-01T07:08:17.928Z,1014.12
2022-12-01T07:09:17.881Z,1014.13
2022-12-01T07:10:17.864Z,1014.14
2022-12-01T07:11:17.851Z,1014.09
2022-12-01T07:12:17.841Z,1014.14
2022-12-01T07:13:17.816Z,1014.15
2022-12-01T07:14:17.801Z,1014.21
2022-12-01T07:15:17.812Z,1014.16
2022-12-01T07:16:17.874Z,1014.23
2022-12-01T07:17:17.767Z,1014.18
2022-12-01T07:18:17.765Z,1014.18
2022-12-01T07:19:17.741Z,1014.23
2022-12-01T07:20:17.762Z,1014.28
2022-12-01T07:21:17.727Z,1014.29
2022-12-01T07:22:17.740Z,1014.29
2022-12-01T07:23:17.712Z,1014.29
2022-12-01T07:24:17.692Z,1014.31
2022-12-01T07:25:17.698Z,1014.28
2022-12-01T07:26:17.700Z,1014.34
2022-12-01T07:27:17.649Z,1014.26
2022-12-01T07:28:17.636Z,1014.22
2022-12-01T07:29:17.698Z,1014.21
2022-12-01T07:30:17.632Z,1014.23
2022-12-01T07:31:17.635Z,1014.24
2022-12-01T07:32:17.847Z,1014.32
2022-12-01T07:33:17.636Z,1014.32
2022-12-01T07:34:17.573Z,1014.25
2022-12-01T07:35:17.581Z,1014.25
2022-12-01T07:36:17.583Z,1014.32
2022-12-01T07:37:17.539Z,1014.30
2022-12-01T07:38:21.870Z,1014.31
2022-12-01T07:39:17.520Z,1014.36
2022-12-01T07:40:17.507Z,1014.32
2022-12-01T07:41:17.987Z,1014.35
2022-12-01T07:42:17.524Z,1014.42
2022-12-01T07:43:17.482Z,1014.39
2022-12-01T07:44:17.492Z,1014.38
2022-12-01T07:45:17.478Z,1014.34
2022-12-01T07:46:22.580Z,1014.46
2022-12-01T07:47:17.453Z,1014.40
2022-12-01T07:48:17.464Z,1014.42
2022-12-01T07:49:17.415Z,1014.43
2022-12-01T07:50:17.407Z,1014.40
2022-12-01T07:51:17.404Z,1014.41
2022-12-01T07:52:17.403Z,1014.43
2022-12-01T07:53:17.393Z,1014.42
2022-12-01T07:54:17.363Z,1014.47
2022-12-01T07:55:17.350Z,1014.44
2022-12-01T07:56:17.347Z,1014.50
2022-12-01T07:57:17.360Z,1014.43
2022-12-01T07:58:17.310Z,1014.47
2022-12-01T07:59:17.302Z,1014.43
2022-12-01T08:00:17.296Z,1014.49
2022-12-01T08:01:17.434Z,1014.50
2022-12-01T08:02:17.459Z,1014.40
2022-12-01T08:03:17.323Z,1014.41
2022-12-01T08:04:17.301Z,1014.47
2022-12-01T08:05:17.258Z,1014.51
2022-12-01T08:06:17.260Z,1014.46
2022-12-01T08:07:17.219Z,1014.53
2022-12-01T08:08:17.295Z,1014.46
2022-12-01T08:09:17.187Z,1014.54
2022-12-01T08:10:17.203Z,1014.52
2022-12-01T08:11:17.184Z,1014.41
2022-12-01T08:12:17.197Z,1014.44
2022-12-01T08:13:17.680Z,1014.43
2022-12-01T08:14:17.142Z,1014.50
2022-12-01T08:15:17.122Z,1014.48
2022-12-01T08:16:17.239Z,1014.52
2022-12-01T08:17:17.098Z,1014.43
2022-12-01T08:18:17.096Z,1014.47
2022-12-01T08:19:17.093Z,1014.47
2022-12-01T08:20:22.278Z,1014.44
2022-12-01T08:21:18.094Z,1014.46
2022-12-01T08:22:17.056Z,1014.41
2022-12-01T08:23:17.032Z,1014.45
2022-12-01T08:24:17.030Z,1014.40
2022-12-01T08:25:17.041Z,1014.41
2022-12-01T08:26:16.997Z,1014.45
2022-12-01T08:27:17.016Z,1014.38
2022-12-01T08:28:17.019Z,1014.40
2022-12-01T08:29:20.097Z,1014.41
2022-12-01T08:30:16.960Z,1014.43
2022-12-01T08:31:17.070Z,1014.42
2022-12-01T08:32:16.981Z,1014.40
2022-12-01T08:33:16.925Z,1014.45
2022-12-01T08:34:16.920Z,1014.47
2022-12-01T08:35:16.904Z,1014.46
2022-12-01T08:36:16.923Z,1014.47
2022-12-01T08:37:16.913Z,1014.47
2022-12-01T08:38:16.872Z,1014.47
2022-12-01T08:39:16.875Z,1014.46
2022-12-01T08:40:16.849Z,1014.52
2022-12-01T08:41:16.876Z,1014.53
2022-12-01T08:42:16.853Z,1014.45
2022-12-01T08:43:34.725Z,1014.54
2022-12-01T08:44:16.926Z,1014.57
2022-12-01T08:45:16.796Z,1014.48
2022-12-01T08:46:16.875Z,1014.61
2022-12-01T08:47:18.859Z,1014.57
2022-12-01T08:48:16.785Z,1014.58
2022-12-01T08:49:16.781Z,1014.51
2022-12-01T08:50:16.735Z,1014.60
2022-12-01T08:51:16.736Z,1014.60
2022-12-01T08:52:16.743Z,1014.63
2022-12-01T08:53:16.727Z,1014.64
2022-12-01T08:54:16.725Z,1014.56
2022-12-01T08:55:16.727Z,1014.59
2022-12-01T08:56:16.671Z,1014.60
2022-12-01T08:57:16.693Z,1014.58
2022-12-01T08:58:16.653Z,1014.57
2022-12-01T08:59:16.662Z,1014.53
2022-12-01T09:00:16.677Z,1014.60
2022-12-01T09:01:16.697Z,1014.58
2022-12-01T09:02:16.648Z,1014.54
2022-12-01T09:03:16.652Z,1014.58
2022-12-01T09:04:16.582Z,1014.55
2022-12-01T09:05:16.586Z,1014.55
2022-12-01T09:06:16.596Z,1014.65
2022-12-01T09:07:19.156Z,1014.61
2022-12-01T09:08:16.637Z,1014.61
2022-12-01T09:09:16.579Z,1014.65
2022-12-01T09:10:16.517Z,1014.66
2022-12-01T09:11:16.531Z,1014.64
2022-12-01T09:12:16.519Z,1014.66
2022-12-01T09:13:16.545Z,1014.68
2022-12-01T09:14:16.481Z,1014.70
2022-12-01T09:15:16.466Z,1014.68
2022-12-01T09:16:16.533Z,1014.71
2022-12-01T09:17:16.497Z,1014.75
2022-12-01T09:18:16.427Z,1014.66
2022-12-01T09:19:22.229Z,1014.67
2022-12-01T09:20:16.425Z,1014.73
2022-12-01T09:21:16.420Z,1014.72
2022-12-01T09:22:16.395Z,1014.76
2022-12-01T09:23:16.422Z,1014.72
2022-12-01T09:24:16.384Z,1014.69
2022-12-01T09:25:16.408Z,1014.76
2022-12-01T09:26:16.354Z,1014.69
2022-12-01T09:27:16.364Z,1014.73
2022-12-01T09:28:16.338Z,1014.72
2022-12-01T09:29:16.307Z,1014.73
2022-12-01T09:30:16.312Z,1014.73
2022-12-01T09:31:16.348Z,1014.71
2022-12-01T09:32:16.302Z,1014.71
2022-12-01T09:33:16.271Z,1014.68
2022-12-01T09:34:16.269Z,1014.73
2022-12-01T09:35:19.654Z,1014.69
2022-12-01T09:36:16.236Z,1014.66
2022-12-01T09:37:16.253Z,1014.69
2022-12-01T09:38:16.241Z,1014.67
2022-12-01T09:39:16.212Z,1014.67
2022-12-01T09:40:16.216Z,1014.60
2022-12-01T09:41:16.199Z,1014.65
2022-12-01T09:42:16.202Z,1014.64
2022-12-01T09:43:16.153Z,1014.60
2022-12-01T09:44:16.187Z,1014.61
2022-12-01T09:45:16.134Z,1014.62
2022-12-01T09:46:16.173Z,1014.63
2022-12-01T09:47:16.140Z,1014.60
2022-12-01T09:48:16.193Z,1014.59
2022-12-01T09:49:16.091Z,1014.53
2022-12-01T09:50:16.079Z,1014.58
2022-12-01T09:51:16.071Z,1014.61
2022-12-01T09:52:16.066Z,1014.56
2022-12-01T09:53:16.045Z,1014.57
2022-12-01T09:54:16.075Z,1014.59
2022-12-01T09:55:16.046Z,1014.55
2022-12-01T09:56:16.039Z,1014.53
2022-12-01T09:57:16.047Z,1014.50
2022-12-01T09:58:16.025Z,1014.52
2022-12-01T09:59:15.980Z,1014.62
2022-12-01T10:00:16.013Z,1014.61
2022-12-01T10:01:16.058Z,1014.54
2022-12-01T10:02:16.016Z,1014.57
2022-12-01T10:03:16.839Z,1014.57
2022-12-01T10:04:15.938Z,1014.53
2022-12-01T10:05:15.995Z,1014.50
2022-12-01T10:06:27.389Z,1014.55
2022-12-01T10:07:16.901Z,1014.49
2022-12-01T10:08:15.886Z,1014.55
2022-12-01T10:09:15.897Z,1014.51
2022-12-01T10:10:15.891Z,1014.48
2022-12-01T10:11:15.884Z,1014.51
2022-12-01T10:12:15.862Z,1014.56
2022-12-01T10:13:15.869Z,1014.45
2022-12-01T10:14:19.770Z,1014.52
2022-12-01T10:15:15.810Z,1014.47
2022-12-01T10:16:15.841Z,1014.51
2022-12-01T10:17:15.995Z,1014.54
2022-12-01T10:18:15.793Z,1014.53
2022-12-01T10:19:15.801Z,1014.50
2022-12-01T10:20:15.749Z,1014.50
2022-12-01T10:21:15.749Z,1014.45
2022-12-01T10:22:15.751Z,1014.52
2022-12-01T10:23:15.719Z,1014.45
2022-12-01T10:24:15.712Z,1014.44
2022-12-01T10:25:15.738Z,1014.49
2022-12-01T10:26:15.708Z,1014.44
2022-12-01T10:27:15.703Z,1014.50
2022-12-01T10:28:15.676Z,1014.37
2022-12-01T10:29:15.652Z,1014.40
2022-12-01T10:30:15.683Z,1014.46
2022-12-01T10:31:15.696Z,1014.44
2022-12-01T10:32:15.726Z,1014.37
2022-12-01T10:33:15.618Z,1014.38
2022-12-01T10:34:15.601Z,1014.41
2022-12-01T10:35:15.634Z,1014.39
2022-12-01T10:36:15.597Z,1014.36
2022-12-01T10:37:15.628Z,1014.42
2022-12-01T10:38:15.570Z,1014.35
2022-12-01T10:39:15.636Z,1014.41
2022-12-01T10:40:15.572Z,1014.39
2022-12-01T10:41:15.522Z,1014.33
2022-12-01T10:42:15.531Z,1014.33
2022-12-01T10:43:15.505Z,1014.28
2022-12-01T10:44:15.536Z,1014.32
2022-12-01T10:45:15.473Z,1014.37
2022-12-01T10:46:15.561Z,1014.34
2022-12-01T10:47:15.452Z,1014.30
2022-12-01T10:48:15.461Z,1014.35
2022-12-01T10:49:15.483Z,1014.34
2022-12-01T10:50:15.440Z,1014.29
2022-12-01T10:51:15.438Z,1014.31
2022-12-01T10:52:15.396Z,1014.31
2022-12-01T10:53:15.408Z,1014.27
2022-12-01T10:54:15.412Z,1014.33
2022-12-01T10:55:15.380Z,1014.29
2022-12-01T10:56:15.366Z,1014.31
2022-12-01T10:57:15.340Z,1014.32
2022-12-01T10:58:15.342Z,1014.29
2022-12-01T10:59:15.343Z,1014.35
2022-12-01T11:00:42.942Z,1014.29
2022-12-01T11:01:16.454Z,1014.29
2022-12-01T11:02:15.555Z,1014.29
2022-12-01T11:03:19.937Z,1014.25
2022-12-01T11:04:15.269Z,1014.25
2022-12-01T11:05:15.286Z,1014.30
2022-12-01T11:06:15.242Z,1014.29
2022-12-01T11:07:15.255Z,1014.24
2022-12-01T11:08:15.238Z,1014.23
2022-12-01T11:09:15.245Z,1014.24
2022-12-01T11:10:15.271Z,1014.24
2022-12-01T11:11:15.200Z,1014.26
2022-12-01T11:12:15.185Z,1014.22
2022-12-01T11:13:15.187Z,1014.21
2022-12-01T11:14:15.163Z,1014.24
2022-12-01T11:15:15.163Z,1014.24
2022-12-01T11:16:15.230Z,1014.26
2022-12-01T11:17:15.128Z,1014.25
2022-12-01T11:18:15.155Z,1014.22
2022-12-01T11:19:15.209Z,1014.29
2022-12-01T11:20:15.191Z,1014.28
2022-12-01T11:21:15.136Z,1014.21
2022-12-01T11:22:15.112Z,1014.22
2022-12-01T11:23:15.122Z,1014.14
2022-12-01T11:24:15.072Z,1014.15
2022-12-01T11:25:15.063Z,1014.17
2022-12-01T11:26:15.027Z,1014.21
2022-12-01T11:27:15.023Z,1014.17
2022-12-01T11:28:15.040Z,1014.18
2022-12-01T11:29:15.033Z,1014.11
2022-12-01T11:30:15.088Z,1014.18
2022-12-01T11:31:15.062Z,1014.10
2022-12-01T11:32:15.071Z,1014.14
2022-12-01T11:33:14.964Z,1014.17
2022-12-01T11:34:15.030Z,1014.07
2022-12-01T11:35:14.938Z,1014.07
2022-12-01T11:36:16.328Z,1014.07
2022-12-01T11:37:14.950Z,1014.08
2022-12-01T11:38:30.673Z,1014.00
2022-12-01T11:39:15.885Z,1013.97
2022-12-01T11:40:14.943Z,1014.06
2022-12-01T11:41:14.921Z,1013.98
2022-12-01T11:42:14.872Z,1014.00
2022-12-01T11:43:14.842Z,1014.01
2022-12-01T11:44:43.063Z,1014.01
2022-12-01T11:45:14.819Z,1014.03
2022-12-01T11:46:14.874Z,1013.89
2022-12-01T11:47:23.223Z,1013.95
2022-12-01T11:48:15.796Z,1013.95
2022-12-01T11:49:14.824Z,1014.01
2022-12-01T11:50:14.881Z,1013.97
2022-12-01T11:51:14.767Z,1013.96
2022-12-01T11:52:14.752Z,1014.01
2022-12-01T11:53:14.786Z,1013.96
2022-12-01T11:54:14.748Z,1014.04
2022-12-01T11:55:14.712Z,1013.97
2022-12-01T11:56:14.722Z,1013.93
2022-12-01T11:57:35.039Z,1013.93
2022-12-01T11:58:15.784Z,1013.95
2022-12-01T11:59:14.669Z,1013.99
2022-12-01T12:00:14.790Z,1013.98
2022-12-01T12:01:19.020Z,1013.93
2022-12-01T12:02:14.798Z,1013.92
2022-12-01T12:03:14.677Z,1013.87
2022-12-01T12:04:14.642Z,1013.89
2022-12-01T12:05:14.639Z,1013.89